createdAt,value
2023-02-06T00:01:09.326Z,72.75
2023-02-06T00:03:42.373Z,72.61
2023-02-06T00:06:13.064Z,72.73
2023-02-06T00:08:39.792Z,72.51
2023-02-06T00:11:12.799Z,72.21
2023-02-06T00:13:42.077Z,72.54
2023-02-06T00:16:28.276Z,73.12
2023-02-06T00:18:57.896Z,72.18
2023-02-06T00:21:31.129Z,72.73
2023-02-06T00:24:16.063Z,72.16
2023-02-06T00:26:44.691Z,72.94
2023-02-06T00:29:14.015Z,72.65
2023-02-06T00:31:40.715Z,72.70
2023-02-06T00:34:10.455Z,72.96
2023-02-06T00:36:37.595Z,73.17
2023-02-06T00:39:11.266Z,72.83
2023-02-06T00:41:38.710Z,72.98
2023-02-06T00:44:08.636Z,72.69
2023-02-06T00:46:40.712Z,73.23
2023-02-06T00:49:07.520Z,73.33
2023-02-06T00:51:36.206Z,72.79
2023-02-06T00:54:05.461Z,72.48
2023-02-06T00:56:32.515Z,72.52
2023-02-06T00:59:01.059Z,72.92
2023-02-06T01:01:30.615Z,73.32
2023-02-06T01:03:57.416Z,73.04
2023-02-06T01:06:24.337Z,72.91
2023-02-06T01:08:51.436Z,72.83
2023-02-06T01:11:22.627Z,73.06
2023-02-06T01:13:50.217Z,73.12
2023-02-06T01:16:20.788Z,72.84
2023-02-06T01:18:53.296Z,73.17
2023-02-06T01:21:25.216Z,73.00
2023-02-06T01:23:54.156Z,72.99
2023-02-06T01:26:34.656Z,73.45
2023-02-06T01:29:06.737Z,73.20
2023-02-06T01:31:33.483Z,73.43
2023-02-06T01:34:02.008Z,73.26
2023-02-06T01:36:29.206Z,72.67
2023-02-06T01:38:56.279Z,73.21
2023-02-06T01:41:24.267Z,73.21
2023-02-06T01:44:18.277Z,73.32
2023-02-06T01:46:47.822Z,73.52
2023-02-06T01:49:35.764Z,73.90
2023-02-06T01:52:14.556Z,73.86
2023-02-06T01:54:41.965Z,73.18
2023-02-06T01:57:11.829Z,73.85
2023-02-06T01:59:43.038Z,73.34
2023-02-06T02:02:10.168Z,73.22
2023-02-06T02:04:39.246Z,73.03
2023-02-06T02:07:37.476Z,74.27
2023-02-06T02:10:05.474Z,73.64
2023-02-06T02:12:32.177Z,73.47
2023-02-06T02:14:59.336Z,73.73
2023-02-06T02:18:02.537Z,74.68
2023-02-06T02:20:31.980Z,74.14
2023-02-06T02:23:18.652Z,74.37
2023-02-06T02:26:15.090Z,74.22
2023-02-06T02:32:33.249Z,73.79
2023-02-06T02:35:35.838Z,74.91
2023-02-06T02:38:45.561Z,73.39
2023-02-06T02:41:46.088Z,74.50
2023-02-06T02:44:19.559Z,74.58
2023-02-06T02:46:50.648Z,73.86
2023-02-06T02:49:58.288Z,74.10
2023-02-06T02:52:26.814Z,73.95
2023-02-06T02:54:54.366Z,73.54
2023-02-06T02:57:31.828Z,73.96
2023-02-06T03:00:00.749Z,73.90
2023-02-06T03:02:35.005Z,73.76
2023-02-06T03:05:11.440Z,74.29
2023-02-06T03:08:14.879Z,74.29
2023-02-06T03:10:52.201Z,73.14
2023-02-06T03:13:51.139Z,73.48
2023-02-06T03:16:26.231Z,73.44
2023-02-06T03:19:02.930Z,73.82
2023-02-06T03:21:32.281Z,73.98
2023-02-06T03:24:03.129Z,73.67
2023-02-06T03:26:32.342Z,73.34
2023-02-06T03:29:02.384Z,73.77
2023-02-06T03:31:35.160Z,74.17
2023-02-06T03:34:18.659Z,73.78
2023-02-06T03:36:45.411Z,74.00
2023-02-06T03:39:12.816Z,73.97
2023-02-06T03:41:41.076Z,73.61
2023-02-06T03:44:12.279Z,73.84
2023-02-06T03:46:42.220Z,74.09
2023-02-06T03:49:14.066Z,74.16
2023-02-06T03:51:48.713Z,73.80
2023-02-06T03:54:19.021Z,73.77
2023-02-06T03:57:03.171Z,74.30
2023-02-06T03:59:31.191Z,73.97
2023-02-06T04:02:00.987Z,74.00
2023-02-06T04:04:39.573Z,73.99
2023-02-06T04:07:17.617Z,74.60
2023-02-06T04:09:44.309Z,74.36
2023-02-06T04:12:11.763Z,74.10
2023-02-06T04:14:38.836Z,73.93
2023-02-06T04:17:06.076Z,74.03
2023-02-06T04:19:33.198Z,74.12
2023-02-06T04:21:59.921Z,74.88
2023-02-06T04:24:26.616Z,74.56
2023-02-06T04:26:55.641Z,74.65
2023-02-06T04:29:22.340Z,74.21
2023-02-06T04:31:48.890Z,73.93
2023-02-06T04:34:15.486Z,74.55
2023-02-06T04:36:42.147Z,73.85
2023-02-06T04:39:09.064Z,74.84
2023-02-06T04:41:35.904Z,74.11
2023-02-06T04:44:02.475Z,74.44
2023-02-06T04:46:29.164Z,74.62
2023-02-06T04:48:55.892Z,74.44
2023-02-06T04:51:22.745Z,74.90
2023-02-06T04:53:49.399Z,74.43
2023-02-06T04:56:16.097Z,74.78
2023-02-06T04:58:42.789Z,74.18
2023-02-06T05:01:09.698Z,74.91
2023-02-06T05:03:36.420Z,74.51
2023-02-06T05:06:04.760Z,74.67
2023-02-06T05:08:39.131Z,74.76
2023-02-06T05:11:06.182Z,75.04
2023-02-06T05:13:34.246Z,74.89
2023-02-06T05:16:11.926Z,75.13
2023-02-06T05:18:39.261Z,74.74
2023-02-06T05:21:06.382Z,74.91
2023-02-06T05:23:33.261Z,74.87
2023-02-06T05:26:00.769Z,74.72
2023-02-06T05:28:29.853Z,74.85
2023-02-06T05:30:57.210Z,74.56
2023-02-06T05:33:24.172Z,75.19
2023-02-06T05:35:50.710Z,74.98
2023-02-06T05:38:17.645Z,75.15
2023-02-06T05:40:44.704Z,75.14
2023-02-06T05:43:11.717Z,75.51
2023-02-06T05:45:38.509Z,75.18
2023-02-06T05:48:05.486Z,75.36
2023-02-06T05:50:34.382Z,75.49
2023-02-06T05:53:01.066Z,76.24
2023-02-06T05:55:27.890Z,75.71
2023-02-06T05:57:54.438Z,75.88
2023-02-06T06:00:35.019Z,75.38
2023-02-06T06:03:01.715Z,75.44
2023-02-06T06:05:29.442Z,74.98
2023-02-06T06:07:56.377Z,75.69
2023-02-06T06:10:29.305Z,75.32
2023-02-06T06:13:00.628Z,75.20
2023-02-06T06:15:27.514Z,74.97
2023-02-06T06:17:58.633Z,75.32
2023-02-06T06:20:25.642Z,75.46
2023-02-06T06:22:52.576Z,75.08
2023-02-06T06:25:19.317Z,75.54
2023-02-06T06:27:45.957Z,75.37
2023-02-06T06:30:12.979Z,74.96
2023-02-06T06:32:39.750Z,75.36
2023-02-06T06:35:07.733Z,74.98
2023-02-06T06:37:40.656Z,74.97
2023-02-06T06:40:10.359Z,74.87
2023-02-06T06:42:37.402Z,74.85
2023-02-06T06:45:08.243Z,74.99
2023-02-06T06:47:43.422Z,74.40
2023-02-06T06:50:46.416Z,74.35
2023-02-06T06:53:22.153Z,74.68
2023-02-06T06:56:27.042Z,74.62
2023-02-06T06:58:58.296Z,74.51
2023-02-06T07:01:33.671Z,74.39
2023-02-06T07:04:09.904Z,74.42
2023-02-06T07:10:19.580Z,74.58
2023-02-06T07:13:01.623Z,74.56
2023-02-06T07:21:26.887Z,74.49
2023-02-06T07:24:33.128Z,75.12
2023-02-06T07:27:05.154Z,74.55
2023-02-06T07:29:41.980Z,74.92
2023-02-06T09:33:44.377Z,78.47
2023-02-06T09:36:23.502Z,77.60
2023-02-06T09:39:05.487Z,77.48
2023-02-06T10:07:25.064Z,78.04
2023-02-06T10:13:57.311Z,78.11
2023-02-06T10:16:26.837Z,77.86
2023-02-06T10:19:21.307Z,78.55
2023-02-06T10:22:22.529Z,78.03
2023-02-06T10:25:29.682Z,76.74
2023-02-06T10:28:25.421Z,77.10
2023-02-06T10:31:21.757Z,76.50
2023-02-06T10:33:57.507Z,76.29
2023-02-06T10:37:04.649Z,75.95
2023-02-06T10:40:06.722Z,74.38
2023-02-06T10:42:54.808Z,74.39
2023-02-06T10:46:23.084Z,73.73
2023-02-06T10:49:02.728Z,73.42
2023-02-06T10:51:38.880Z,73.39
2023-02-06T10:54:15.932Z,72.35
2023-02-06T10:56:52.168Z,72.31
2023-02-06T10:59:37.488Z,72.53
2023-02-06T11:02:34.470Z,70.76
2023-02-06T11:05:08.451Z,70.34
2023-02-06T11:07:54.200Z,69.18
2023-02-06T11:10:28.536Z,70.10
2023-02-06T11:13:16.541Z,68.65
2023-02-06T11:16:17.141Z,68.89
2023-02-06T11:18:51.409Z,68.74
2023-02-06T11:22:01.035Z,65.83
2023-02-06T11:24:27.716Z,65.18
2023-02-06T11:27:05.016Z,63.60
2023-02-06T11:30:02.622Z,63.81
2023-02-06T11:33:09.160Z,64.16
2023-02-06T11:38:55.024Z,61.19
2023-02-06T11:41:24.060Z,64.01
2023-02-06T11:43:58.654Z,62.34
2023-02-06T11:46:34.242Z,61.60
2023-02-06T11:49:11.523Z,60.98
2023-02-06T11:51:51.896Z,59.27
2023-02-06T11:54:41.632Z,58.02
2023-02-06T11:57:26.646Z,59.74
2023-02-06T12:00:01.158Z,60.06
2023-02-06T12:02:34.241Z,59.98
2023-02-06T12:05:25.334Z,57.94
2023-02-06T12:08:05.066Z,55.18
2023-02-06T12:10:55.107Z,58.20
2023-02-06T12:13:27.881Z,53.76
2023-02-06T12:15:58.716Z,58.23
2023-02-06T12:18:41.412Z,56.50
2023-02-06T12:21:24.544Z,55.11
2023-02-06T12:24:02.174Z,56.96
2023-02-06T12:26:34.194Z,55.06
2023-02-06T12:29:23.131Z,53.35
2023-02-06T12:32:04.730Z,52.02
2023-02-06T12:34:53.575Z,52.54
2023-02-06T12:37:39.814Z,53.61
2023-02-06T12:40:27.060Z,51.29
2023-02-06T12:43:01.692Z,52.53
2023-02-06T12:45:57.565Z,51.62
2023-02-06T12:48:44.027Z,51.15
2023-02-06T12:51:42.817Z,50.34
2023-02-06T12:54:21.993Z,50.91
2023-02-06T12:57:17.334Z,47.90
2023-02-06T13:00:02.719Z,48.45
2023-02-06T13:03:01.178Z,46.04
2023-02-06T13:05:37.387Z,50.21
2023-02-06T13:08:09.994Z,49.82
2023-02-06T13:10:37.879Z,49.81
2023-02-06T13:13:05.491Z,50.16
2023-02-06T13:15:37.863Z,48.66
2023-02-06T13:18:37.012Z,45.16
2023-02-06T13:21:32.461Z,44.01
2023-02-06T13:24:15.641Z,47.17
2023-02-06T13:26:56.573Z,47.48
2023-02-06T13:29:30.520Z,47.05
2023-02-06T13:32:17.826Z,47.49
2023-02-06T13:34:53.979Z,48.02
2023-02-06T13:37:44.945Z,49.08
2023-02-06T13:40:24.417Z,48.75
2023-02-06T13:43:19.004Z,49.61
2023-02-06T13:46:04.472Z,47.87
2023-02-06T13:48:33.999Z,48.37
2023-02-06T13:51:33.301Z,44.82
2023-02-06T13:54:12.534Z,45.70
2023-02-06T13:56:42.178Z,47.39
2023-02-06T13:59:21.112Z,46.38
2023-02-06T14:01:51.019Z,47.89
2023-02-06T14:04:24.880Z,47.90
2023-02-06T14:07:31.183Z,43.90
2023-02-06T14:10:06.815Z,46.65
2023-02-06T14:12:54.882Z,46.32
2023-02-06T14:15:29.117Z,47.33
2023-02-06T14:18:15.582Z,47.37
2023-02-06T14:20:52.561Z,45.63
2023-02-06T14:23:45.568Z,45.19
2023-02-06T14:26:45.851Z,45.62
2023-02-06T14:32:51.206Z,45.67
2023-02-06T14:35:57.260Z,44.82
2023-02-06T14:39:09.675Z,46.43
2023-02-06T14:41:39.798Z,47.19
2023-02-06T14:44:20.334Z,44.76
2023-02-06T14:46:47.687Z,46.51
2023-02-06T14:49:18.911Z,45.66
2023-02-06T14:51:50.625Z,45.49
2023-02-06T14:54:34.262Z,43.56
2023-02-06T14:57:21.067Z,45.12
2023-02-06T15:00:23.203Z,42.93
2023-02-06T15:03:17.719Z,44.99
2023-02-06T15:06:14.682Z,45.82
2023-02-06T15:08:51.012Z,44.52
2023-02-06T15:11:32.470Z,45.75
2023-02-06T15:14:07.238Z,44.77
2023-02-06T15:16:51.018Z,43.93
2023-02-06T15:19:27.739Z,44.80
2023-02-06T15:22:17.254Z,44.21
2023-02-06T15:24:52.992Z,44.98
2023-02-06T15:27:57.681Z,41.90
2023-02-06T15:30:44.116Z,39.13
2023-02-06T15:34:26.005Z,42.98
2023-02-06T15:36:30.843Z,41.94
2023-02-06T15:39:02.871Z,41.93
2023-02-06T15:41:32.707Z,42.32
2023-02-06T15:44:40.451Z,40.13
2023-02-06T15:47:14.013Z,41.29
2023-02-06T15:50:07.478Z,40.91
2023-02-06T15:52:42.888Z,40.28
2023-02-06T15:55:33.239Z,37.86
2023-02-06T15:58:06.277Z,39.99
2023-02-06T16:00:38.235Z,39.95
2023-02-06T16:03:21.711Z,39.31
2023-02-06T16:05:53.424Z,39.96
2023-02-06T16:08:30.877Z,39.80
2023-02-06T16:11:54.178Z,39.29
2023-02-06T16:15:08.394Z,39.56
2023-02-06T16:17:43.637Z,40.09
2023-02-06T16:20:52.480Z,39.74
2023-02-06T16:23:53.052Z,40.03
2023-02-06T16:27:20.226Z,40.92
2023-02-06T16:30:09.309Z,41.41
2023-02-06T16:32:56.660Z,41.93
2023-02-06T16:36:05.212Z,41.99
2023-02-06T16:39:03.699Z,42.09
2023-02-06T16:45:31.491Z,43.62
2023-02-06T16:48:18.489Z,43.75
2023-02-06T16:51:31.664Z,43.88
2023-02-06T16:54:09.631Z,43.99
2023-02-06T17:02:03.425Z,45.68
2023-02-06T17:04:58.180Z,45.81
2023-02-06T17:09:37.840Z,46.37
2023-02-06T17:21:27.470Z,47.70
2023-02-06T20:30:41.873Z,60.98
2023-02-06T20:37:46.356Z,61.45
2023-02-06T21:08:21.033Z,61.61
2023-02-06T21:15:21.312Z,61.45
2023-02-06T21:25:08.694Z,62.89
2023-02-06T21:28:48.617Z,62.59
2023-02-06T21:41:34.529Z,63.05
2023-02-06T21:56:04.287Z,64.62
2023-02-06T21:58:49.126Z,62.88
2023-02-06T22:01:43.501Z,64.21
2023-02-06T22:05:24.812Z,63.14
2023-02-06T22:48:28.561Z,64.29
2023-02-06T22:51:52.632Z,65.75
2023-02-06T23:03:29.467Z,65.65
2023-02-06T23:31:33.276Z,66.19
2023-02-06T23:34:00.839Z,65.47
2023-02-06T23:36:40.372Z,64.66
2023-02-06T23:39:18.613Z,65.44
2023-02-06T23:41:54.660Z,65.09
2023-02-06T23:48:03.006Z,66.22
2023-02-06T23:50:56.613Z,65.08
2023-02-06T23:53:53.037Z,65.36
2023-02-06T23:57:01.787Z,67.24
